Time,TemperatureF,DewpointF,PressureIn,WindDirection,WindDirectionDegrees,WindSpeedMPH,WindSpeedGustMPH,Humidity,HourlyPrecipIn,Conditions,Clouds,dailyrainin,SoftwareType,DateUTC
2013-02-02 00:05:00,3.2,-0.3,30.24,NE,53,4.0,7.0,85,0.00,,,0.00,Wunderground v.1.15,2013-02-02 06:05:00,
2013-02-02 00:10:00,3.1,-0.4,30.24,North,10,3.0,3.0,85,0.00,,,0.00,Wunderground v.1.15,2013-02-02 06:10:00,
2013-02-02 00:19:00,2.9,-0.6,30.24,NNE,25,5.0,6.0,85,0.00,,,0.00,Wunderground v.1.15,2013-02-02 06:19:00,
2013-02-02 00:29:00,2.7,-0.8,30.25,North,4,6.0,6.0,85,0.00,,,0.00,Wunderground v.1.15,2013-02-02 06:29:00,
2013-02-02 00:39:00,2.6,-0.9,30.25,North,354,5.0,5.0,85,0.00,,,0.00,Wunderground v.1.15,2013-02-02 06:39:00,
2013-02-02 00:50:00,2.6,-0.9,30.25,North,354,4.0,4.0,85,0.00,,,0.00,Wunderground v.1.15,2013-02-02 06:50:00,
2013-02-02 00:59:00,2.4,-1.3,30.25,North,354,3.0,4.0,84,0.00,,,0.00,Wunderground v.1.15,2013-02-02 06:59:00,
2013-02-02 01:05:00,2.4,-1.3,30.25,North,4,4.0,4.0,84,0.00,,,0.00,Wunderground v.1.15,2013-02-02 07:05:00,
2013-02-02 01:14:00,2.5,-1.2,30.25,NE,37,4.0,4.0,84,0.00,,,0.00,Wunderground v.1.15,2013-02-02 07:14:00,
2013-02-02 01:25:00,2.6,-0.9,30.25,North,4,3.0,4.0,85,0.00,,,0.00,Wunderground v.1.15,2013-02-02 07:25:00,
2013-02-02 01:34:00,2.5,-1.0,30.26,North,4,3.0,4.0,85,0.00,,,0.00,Wunderground v.1.15,2013-02-02 07:34:00,
2013-02-02 01:40:00,2.4,-1.3,30.26,NNE,12,3.0,4.0,84,0.00,,,0.00,Wunderground v.1.15,2013-02-02 07:40:00,
2013-02-02 01:50:00,2.4,-1.3,30.26,North,354,4.0,4.0,84,0.00,,,0.00,Wunderground v.1.15,2013-02-02 07:50:00,
2013-02-02 01:59:00,2.4,-1.3,30.27,North,354,3.0,4.0,84,0.00,,,0.00,Wunderground v.1.15,2013-02-02 07:59:00,
2013-02-02 02:05:00,2.4,-1.3,30.27,NNW,339,3.0,4.0,84,0.00,,,0.00,Wunderground v.1.15,2013-02-02 08:05:00,
2013-02-02 02:15:00,2.3,-1.4,30.27,NNW,348,3.0,5.0,84,0.00,,,0.00,Wunderground v.1.15,2013-02-02 08:15:00,
2013-02-02 02:24:00,2.1,-1.6,30.28,NW,318,3.0,4.0,84,0.00,,,0.00,Wunderground v.1.15,2013-02-02 08:24:00,
2013-02-02 02:29:00,2.1,-1.6,30.28,NNW,342,3.0,3.0,84,0.00,,,0.00,Wunderground v.1.15,2013-02-02 08:29:00,
2013-02-02 02:40:00,2.0,-1.5,30.28,North,4,3.0,3.0,85,0.00,,,0.00,Wunderground v.1.15,2013-02-02 08:40:00,
2013-02-02 02:49:00,2.1,-1.4,30.28,NW,309,2.0,3.0,85,0.00,,,0.00,Wunderground v.1.15,2013-02-02 08:49:00,
2013-02-02 02:54:00,2.2,-1.3,30.29,NNW,345,2.0,4.0,85,0.00,,,0.00,Wunderground v.1.15,2013-02-02 08:54:00,
2013-02-02 03:10:00,2.2,-1.5,30.29,NNW,347,3.0,3.0,84,0.00,,,0.00,Wunderground v.1.15,2013-02-02 09:10:00,
2013-02-02 03:19:00,2.2,-1.5,30.29,NW,326,2.0,2.0,84,0.00,,,0.00,Wunderground v.1.15,2013-02-02 09:19:00,
2013-02-02 03:24:00,2.3,-1.2,30.30,NW,320,2.0,3.0,85,0.00,,,0.00,Wunderground v.1.15,2013-02-02 09:24:00,
2013-02-02 03:35:00,2.3,-1.2,30.30,NNW,335,2.0,4.0,85,0.00,,,0.00,Wunderground v.1.15,2013-02-02 09:35:00,
2013-02-02 03:44:00,2.3,-1.2,30.30,NNW,334,2.0,3.0,85,0.00,,,0.00,Wunderground v.1.15,2013-02-02 09:44:00,
2013-02-02 03:49:00,2.3,-1.2,30.30,North,4,2.0,2.0,85,0.00,,,0.00,Wunderground v.1.15,2013-02-02 09:49:00,
2013-02-02 03:59:00,2.2,-1.5,30.30,North,354,2.0,2.0,84,0.00,,,0.00,Wunderground v.1.15,2013-02-02 09:59:00,
2013-02-02 04:05:00,2.2,-1.5,30.30,North,350,2.0,4.0,84,0.00,,,0.00,Wunderground v.1.15,2013-02-02 10:05:00,
2013-02-02 04:14:00,2.1,-1.6,30.30,NNW,347,3.0,3.0,84,0.00,,,0.00,Wunderground v.1.15,2013-02-02 10:14:00,
2013-02-02 04:19:00,2.1,-1.6,30.31,North,349,4.0,4.0,84,0.00,,,0.00,Wunderground v.1.15,2013-02-02 10:19:00,
2013-02-02 04:29:00,2.1,-1.6,30.31,North,354,3.0,3.0,84,0.00,,,0.00,Wunderground v.1.15,2013-02-02 10:29:00,
2013-02-02 04:40:00,2.1,-1.6,30.31,North,8,3.0,3.0,84,0.00,,,0.00,Wunderground v.1.15,2013-02-02 10:40:00,
2013-02-02 04:49:00,2.0,-1.7,30.31,North,4,3.0,3.0,84,0.00,,,0.00,Wunderground v.1.15,2013-02-02 10:49:00,
2013-02-02 04:54:00,1.9,-1.8,30.31,North,359,3.0,3.0,84,0.00,,,0.00,Wunderground v.1.15,2013-02-02 10:54:00,
2013-02-02 05:05:00,1.9,-2.1,30.31,North,354,4.0,9.0,83,0.00,,,0.00,Wunderground v.1.15,2013-02-02 11:05:00,
2013-02-02 05:14:00,1.7,-2.5,30.32,NNW,345,6.0,7.0,82,0.00,,,0.00,Wunderground v.1.15,2013-02-02 11:14:00,
2013-02-02 05:24:00,1.6,-2.6,30.32,NNW,343,6.0,6.0,82,0.00,,,0.00,Wunderground v.1.15,2013-02-02 11:24:00,
2013-02-02 05:29:00,1.5,-2.7,30.32,NNE,23,6.0,8.0,82,0.00,,,0.00,Wunderground v.1.15,2013-02-02 11:29:00,
2013-02-02 05:40:00,1.3,-2.9,30.32,North,4,5.0,5.0,82,0.00,,,0.00,Wunderground v.1.15,2013-02-02 11:40:00,
2013-02-02 05:49:00,1.1,-3.1,30.33,North,4,4.0,4.0,82,0.00,,,0.00,Wunderground v.1.15,2013-02-02 11:49:00,
2013-02-02 05:54:00,1.0,-3.2,30.33,NNW,343,3.0,4.0,82,0.00,,,0.00,Wunderground v.1.15,2013-02-02 11:54:00,
2013-02-02 06:05:00,0.8,-3.4,30.33,NW,324,2.0,3.0,82,0.00,,,0.00,Wunderground v.1.15,2013-02-02 12:05:00,
2013-02-02 06:14:00,0.6,-3.9,30.33,NNW,343,3.0,3.0,81,0.00,,,0.00,Wunderground v.1.15,2013-02-02 12:14:00,
2013-02-02 06:25:00,0.3,-3.9,30.33,NNE,12,2.0,3.0,82,0.00,,,0.00,Wunderground v.1.15,2013-02-02 12:25:00,
2013-02-02 06:34:00,0.0,-4.2,30.33,NNW,343,1.0,2.0,82,0.00,,,0.00,Wunderground v.1.15,2013-02-02 12:34:00,
2013-02-02 06:39:00,-0.1,-4.3,30.33,NNW,347,1.0,1.0,82,0.00,,,0.00,Wunderground v.1.15,2013-02-02 12:39:00,
2013-02-02 06:49:00,-0.3,-4.5,30.33,NNW,347,0.0,0.0,82,0.00,,,0.00,Wunderground v.1.15,2013-02-02 12:49:00,
2013-02-02 06:59:00,-0.6,-4.8,30.33,NNW,347,0.0,0.0,82,0.00,,,0.00,Wunderground v.1.15,2013-02-02 12:59:00,
2013-02-02 07:05:00,-0.8,-5.0,30.33,NNW,347,0.0,0.0,82,0.00,,,0.00,Wunderground v.1.15,2013-02-02 13:05:00,
2013-02-02 07:15:00,-1.1,-5.3,30.34,NNW,347,0.0,0.0,82,0.00,,,0.00,Wunderground v.1.15,2013-02-02 13:15:00,
2013-02-02 07:24:00,-1.4,-5.3,30.34,NNW,347,1.0,1.0,83,0.00,,,0.00,Wunderground v.1.15,2013-02-02 13:24:00,
2013-02-02 07:29:00,-1.6,-5.5,30.34,NNW,329,1.0,1.0,83,0.00,,,0.00,Wunderground v.1.15,2013-02-02 13:29:00,
2013-02-02 07:39:00,-1.9,-5.8,30.34,NNW,328,0.0,0.0,83,0.00,,,0.00,Wunderground v.1.15,2013-02-02 13:39:00,
2013-02-02 07:49:00,-2.4,-6.3,30.34,NNW,328,0.0,0.0,83,0.00,,,0.00,Wunderground v.1.15,2013-02-02 13:49:00,
2013-02-02 08:00:00,-2.8,-6.7,30.34,NNW,329,1.0,1.0,83,0.00,,,0.00,Wunderground v.1.15,2013-02-02 14:00:00,
2013-02-02 08:05:00,-3.0,-6.9,30.34,NNW,329,1.0,1.0,83,0.00,,,0.00,Wunderground v.1.15,2013-02-02 14:05:00,
2013-02-02 08:14:00,-3.1,-7.0,30.35,NW,326,0.0,1.0,83,0.00,,,0.00,Wunderground v.1.15,2013-02-02 14:14:00,
2013-02-02 08:19:00,-3.1,-7.0,30.35,NW,318,1.0,1.0,83,0.00,,,0.00,Wunderground v.1.15,2013-02-02 14:19:00,
2013-02-02 08:29:00,-2.8,-6.4,30.35,NW,318,1.0,1.0,84,0.00,,,0.00,Wunderground v.1.15,2013-02-02 14:29:00,
2013-02-02 08:40:00,-2.7,-6.6,30.35,NW,318,1.0,1.0,83,0.00,,,0.00,Wunderground v.1.15,2013-02-02 14:40:00,
2013-02-02 08:49:00,-2.3,-6.2,30.35,NW,318,0.0,0.0,83,0.00,,,0.00,Wunderground v.1.15,2013-02-02 14:49:00,
2013-02-02 08:55:00,-2.2,-6.3,30.35,NW,318,1.0,1.0,82,0.00,,,0.00,Wunderground v.1.15,2013-02-02 14:55:00,
2013-02-02 09:05:00,-1.9,-6.1,30.35,NW,318,1.0,1.0,82,0.00,,,0.00,Wunderground v.1.15,2013-02-02 15:05:00,
2013-02-02 09:15:00,-1.8,-6.0,30.35,NW,315,2.0,3.0,82,0.00,,,0.00,Wunderground v.1.15,2013-02-02 15:15:00,
2013-02-02 09:24:00,-1.6,-5.8,30.35,NW,315,0.0,1.0,82,0.00,,,0.00,Wunderground v.1.15,2013-02-02 15:24:00,
2013-02-02 09:29:00,-1.3,-5.5,30.34,NW,315,0.0,1.0,82,0.00,,,0.00,Wunderground v.1.15,2013-02-02 15:29:00,
2013-02-02 09:39:00,-0.8,-5.0,30.34,NW,315,1.0,1.0,82,0.00,,,0.00,Wunderground v.1.15,2013-02-02 15:39:00,
2013-02-02 09:49:00,-0.1,-4.5,30.34,NW,315,0.0,0.0,81,0.00,,,0.00,Wunderground v.1.15,2013-02-02 15:49:00,
2013-02-02 10:00:00,1.0,-3.5,30.34,NNW,335,1.0,1.0,81,0.00,,,0.00,Wunderground v.1.15,2013-02-02 16:00:00,
2013-02-02 10:05:00,1.5,-3.0,30.34,NNW,332,1.0,1.0,81,0.00,,,0.00,Wunderground v.1.15,2013-02-02 16:05:00,
2013-02-02 10:14:00,2.4,-2.4,30.34,North,354,1.0,2.0,80,0.00,,,0.00,Wunderground v.1.15,2013-02-02 16:14:00,
2013-02-02 10:20:00,2.8,-2.2,30.34,NW,318,1.0,1.0,79,0.00,,,0.00,Wunderground v.1.15,2013-02-02 16:20:00,
2013-02-02 10:29:00,3.1,-2.2,30.34,NNE,29,1.0,1.0,78,0.00,,,0.00,Wunderground v.1.15,2013-02-02 16:29:00,
2013-02-02 10:34:00,3.2,-2.1,30.34,SE,131,1.0,1.0,78,0.00,,,0.00,Wunderground v.1.15,2013-02-02 16:34:00,
2013-02-02 10:45:00,3.2,-2.1,30.34,SW,230,2.0,2.0,78,0.00,,,0.00,Wunderground v.1.15,2013-02-02 16:45:00,
2013-02-02 10:54:00,2.9,-2.4,30.34,SW,233,3.0,4.0,78,0.00,,,0.00,Wunderground v.1.15,2013-02-02 16:54:00,
2013-02-02 10:59:00,2.8,-2.2,30.34,SW,236,4.0,4.0,79,0.00,,,0.00,Wunderground v.1.15,2013-02-02 16:59:00,
2013-02-02 11:05:00,2.7,-2.3,30.34,SW,226,4.0,4.0,79,0.00,,,0.00,Wunderground v.1.15,2013-02-02 17:05:00,
2013-02-02 11:14:00,2.8,-2.2,30.34,SW,233,3.0,4.0,79,0.00,,,0.00,Wunderground v.1.15,2013-02-02 17:14:00,
2013-02-02 11:19:00,3.0,-2.0,30.34,WSW,245,2.0,2.0,79,0.00,,,0.00,Wunderground v.1.15,2013-02-02 17:19:00,
2013-02-02 11:30:00,3.8,-1.5,30.33,SSW,200,1.0,1.0,78,0.00,,,0.00,Wunderground v.1.15,2013-02-02 17:30:00,
2013-02-02 11:39:00,4.3,-1.3,30.33,SW,218,2.0,2.0,77,0.00,,,0.00,Wunderground v.1.15,2013-02-02 17:39:00,
2013-02-02 11:45:00,4.2,-1.7,30.33,SSW,204,3.0,4.0,76,0.00,,,0.00,Wunderground v.1.15,2013-02-02 17:45:00,
2013-02-02 11:54:00,4.0,-1.6,30.32,South,191,3.0,3.0,77,0.00,,,0.00,Wunderground v.1.15,2013-02-02 17:54:00,
2013-02-02 11:59:00,4.3,-1.0,30.32,SSW,199,2.0,2.0,78,0.00,,,0.00,Wunderground v.1.15,2013-02-02 17:59:00,
2013-02-02 12:05:00,4.3,-1.3,30.32,SW,235,2.0,3.0,77,0.00,,,0.00,Wunderground v.1.15,2013-02-02 18:05:00,
2013-02-02 12:14:00,4.4,-1.2,30.31,South,176,3.0,3.0,77,0.00,,,0.00,Wunderground v.1.15,2013-02-02 18:14:00,
2013-02-02 12:19:00,4.5,-1.1,30.31,SSW,194,3.0,3.0,77,0.00,,,0.00,Wunderground v.1.15,2013-02-02 18:19:00,
2013-02-02 12:29:00,4.6,-1.0,30.31,SW,234,2.0,2.0,77,0.00,,,0.00,Wunderground v.1.15,2013-02-02 18:29:00,
2013-02-02 12:39:00,5.8,0.4,30.30,South,178,2.0,2.0,78,0.00,,,0.00,Wunderground v.1.15,2013-02-02 18:39:00,
2013-02-02 12:44:00,6.1,0.2,30.30,South,191,3.0,3.0,76,0.00,,,0.00,Wunderground v.1.15,2013-02-02 18:44:00,
2013-02-02 12:54:00,6.0,0.1,30.30,WSW,237,4.0,5.0,76,0.00,,,0.00,Wunderground v.1.15,2013-02-02 18:54:00,
2013-02-02 13:05:00,6.3,0.3,30.29,WSW,243,5.0,7.0,76,0.00,,,0.00,Wunderground v.1.15,2013-02-02 19:05:00,
2013-02-02 13:14:00,6.3,0.3,30.28,SSW,197,6.0,7.0,76,0.00,,,0.00,Wunderground v.1.15,2013-02-02 19:14:00,
2013-02-02 13:24:00,6.5,0.3,30.27,SSW,208,5.0,6.0,75,0.00,,,0.00,Wunderground v.1.15,2013-02-02 19:24:00,
2013-02-02 13:29:00,6.3,0.3,30.26,SSW,206,5.0,5.0,76,0.00,,,0.00,Wunderground v.1.15,2013-02-02 19:29:00,
2013-02-02 13:40:00,6.7,0.7,30.26,SSW,212,6.0,6.0,76,0.00,,,0.00,Wunderground v.1.15,2013-02-02 19:40:00,
2013-02-02 13:49:00,7.2,1.2,30.25,South,188,5.0,6.0,76,0.00,,,0.00,Wunderground v.1.15,2013-02-02 19:49:00,
2013-02-02 13:55:00,7.3,1.0,30.25,SW,235,5.0,6.0,75,0.00,,,0.00,Wunderground v.1.15,2013-02-02 19:55:00,
2013-02-02 14:05:00,6.8,0.8,30.25,WSW,239,6.0,6.0,76,0.00,,,0.00,Wunderground v.1.15,2013-02-02 20:05:00,
2013-02-02 14:14:00,6.8,1.1,30.24,WSW,242,6.0,8.0,77,0.00,,,0.00,Wunderground v.1.15,2013-02-02 20:14:00,
2013-02-02 14:24:00,7.2,1.5,30.24,SW,224,5.0,6.0,77,0.00,,,0.00,Wunderground v.1.15,2013-02-02 20:24:00,
2013-02-02 14:29:00,7.2,1.2,30.24,WSW,245,5.0,6.0,76,0.00,,,0.00,Wunderground v.1.15,2013-02-02 20:29:00,
2013-02-02 14:40:00,7.6,1.6,30.24,WSW,249,5.0,6.0,76,0.00,,,0.00,Wunderground v.1.15,2013-02-02 20:40:00,
2013-02-02 14:49:00,7.8,1.8,30.23,SW,234,5.0,5.0,76,0.00,,,0.00,Wunderground v.1.15,2013-02-02 20:49:00,
2013-02-02 14:54:00,8.1,2.1,30.23,SW,224,4.0,5.0,76,0.00,,,0.00,Wunderground v.1.15,2013-02-02 20:54:00,
2013-02-02 15:05:00,7.7,1.7,30.22,SSW,195,5.0,5.0,76,0.00,,,0.00,Wunderground v.1.15,2013-02-02 21:05:00,
2013-02-02 15:15:00,7.8,2.1,30.22,SW,226,3.0,4.0,77,0.00,,,0.00,Wunderground v.1.15,2013-02-02 21:15:00,
2013-02-02 15:24:00,8.1,2.7,30.21,SSW,204,3.0,3.0,78,0.00,,,0.00,Wunderground v.1.15,2013-02-02 21:24:00,
2013-02-02 15:29:00,7.9,2.2,30.20,South,191,3.0,3.0,77,0.00,,,0.00,Wunderground v.1.15,2013-02-02 21:29:00,
2013-02-02 15:39:00,8.1,2.7,30.20,South,174,3.0,3.0,78,0.00,,,0.00,Wunderground v.1.15,2013-02-02 21:39:00,
2013-02-02 15:44:00,8.2,3.0,30.20,SSW,192,3.0,4.0,79,0.00,,,0.00,Wunderground v.1.15,2013-02-02 21:44:00,
2013-02-02 15:54:00,8.2,2.8,30.20,South,171,5.0,5.0,78,0.00,,,0.00,Wunderground v.1.15,2013-02-02 21:54:00,
2013-02-02 15:59:00,8.3,3.4,30.20,SSE,168,5.0,5.0,80,0.00,,,0.00,Wunderground v.1.15,2013-02-02 21:59:00,
2013-02-02 16:05:00,8.3,3.1,30.20,South,181,4.0,5.0,79,0.00,,,0.00,Wunderground v.1.15,2013-02-02 22:05:00,
2013-02-02 16:14:00,8.4,3.8,30.19,SSE,162,3.0,5.0,81,0.00,,,0.00,Wunderground v.1.15,2013-02-02 22:14:00,
2013-02-02 16:19:00,8.3,3.7,30.19,South,170,4.0,4.0,81,0.00,,,0.00,Wunderground v.1.15,2013-02-02 22:19:00,
2013-02-02 16:29:00,8.5,4.1,30.18,SSE,154,3.0,3.0,82,0.00,,,0.00,Wunderground v.1.15,2013-02-02 22:29:00,
2013-02-02 16:40:00,8.3,4.2,30.18,SE,141,2.0,2.0,83,0.00,,,0.00,Wunderground v.1.15,2013-02-02 22:40:00,
2013-02-02 16:49:00,8.3,4.2,30.19,SSE,149,2.0,3.0,83,0.00,,,0.00,Wunderground v.1.15,2013-02-02 22:49:00,
2013-02-02 16:54:00,8.4,4.6,30.19,SSE,162,1.0,3.0,84,0.00,,,0.00,Wunderground v.1.15,2013-02-02 22:54:00,
2013-02-02 17:05:00,8.1,4.3,30.19,SSE,154,2.0,2.0,84,0.00,,,0.00,Wunderground v.1.15,2013-02-02 23:05:00,
2013-02-02 17:14:00,7.8,4.2,30.18,SE,133,2.0,3.0,85,0.00,,,0.00,Wunderground v.1.15,2013-02-02 23:14:00,
2013-02-02 17:24:00,7.7,4.1,30.17,SE,129,2.0,3.0,85,0.00,,,0.00,Wunderground v.1.15,2013-02-02 23:24:00,
2013-02-02 17:34:00,7.6,4.0,30.17,SE,129,3.0,5.0,85,0.00,,,0.00,Wunderground v.1.15,2013-02-02 23:34:00,
2013-02-02 17:39:00,7.7,4.1,30.16,SE,131,3.0,3.0,85,0.00,,,0.00,Wunderground v.1.15,2013-02-02 23:39:00,
2013-02-02 17:49:00,7.7,4.1,30.16,SE,133,4.0,4.0,85,0.00,,,0.00,Wunderground v.1.15,2013-02-02 23:49:00,
2013-02-02 17:54:00,7.7,4.4,30.16,ESE,109,4.0,4.0,86,0.00,,,0.00,Wunderground v.1.15,2013-02-02 23:54:00,
2013-02-02 18:05:00,7.7,4.4,30.17,ESE,122,3.0,3.0,86,0.00,,,0.00,Wunderground v.1.15,2013-02-03 00:05:00,
2013-02-02 18:14:00,7.7,4.4,30.17,East,95,3.0,3.0,86,0.00,,,0.00,Wunderground v.1.15,2013-02-03 00:14:00,
2013-02-02 18:24:00,7.8,4.5,30.15,East,91,3.0,3.0,86,0.00,,,0.00,Wunderground v.1.15,2013-02-03 00:24:00,
2013-02-02 18:34:00,7.7,4.4,30.15,East,87,2.0,2.0,86,0.00,,,0.00,Wunderground v.1.15,2013-02-03 00:34:00,
2013-02-02 18:39:00,7.7,4.4,30.15,East,96,2.0,2.0,86,0.00,,,0.00,Wunderground v.1.15,2013-02-03 00:39:00,
2013-02-02 18:50:00,7.8,4.5,30.14,ESE,116,3.0,3.0,86,0.00,,,0.00,Wunderground v.1.15,2013-02-03 00:50:00,
2013-02-02 18:59:00,7.9,4.6,30.13,SE,134,3.0,5.0,86,0.00,,,0.00,Wunderground v.1.15,2013-02-03 00:59:00,
2013-02-02 19:05:00,7.9,4.8,30.14,ESE,116,3.0,5.0,87,0.00,,,0.00,Wunderground v.1.15,2013-02-03 01:05:00,
2013-02-02 19:14:00,8.0,4.9,30.14,ESE,108,2.0,3.0,87,0.00,,,0.00,Wunderground v.1.15,2013-02-03 01:14:00,
2013-02-02 19:24:00,8.0,4.7,30.13,East,81,2.0,3.0,86,0.00,,,0.00,Wunderground v.1.15,2013-02-03 01:24:00,
2013-02-02 19:34:00,8.1,5.0,30.13,ESE,106,2.0,3.0,87,0.00,,,0.00,Wunderground v.1.15,2013-02-03 01:34:00,
2013-02-02 19:44:00,8.1,5.0,30.13,ESE,103,3.0,3.0,87,0.00,,,0.00,Wunderground v.1.15,2013-02-03 01:44:00,
2013-02-02 19:49:00,8.1,5.0,30.13,ESE,110,3.0,3.0,87,0.00,,,0.00,Wunderground v.1.15,2013-02-03 01:49:00,
2013-02-02 20:00:00,8.3,5.2,30.13,ENE,75,3.0,4.0,87,0.00,,,0.00,Wunderground v.1.15,2013-02-03 02:00:00,
2013-02-02 20:05:00,8.4,5.3,30.13,ESE,118,3.0,4.0,87,0.00,,,0.00,Wunderground v.1.15,2013-02-03 02:05:00,
2013-02-02 20:14:00,8.7,5.6,30.12,ESE,110,3.0,4.0,87,0.00,,,0.00,Wunderground v.1.15,2013-02-03 02:14:00,
2013-02-02 20:19:00,8.8,5.7,30.12,ESE,102,2.0,2.0,87,0.00,,,0.00,Wunderground v.1.15,2013-02-03 02:19:00,
2013-02-02 20:29:00,8.9,5.8,30.12,East,92,2.0,2.0,87,0.00,,,0.00,Wunderground v.1.15,2013-02-03 02:29:00,
2013-02-02 20:39:00,9.1,6.0,30.13,East,87,0.0,1.0,87,0.00,,,0.00,Wunderground v.1.15,2013-02-03 02:39:00,
2013-02-02 20:44:00,9.2,6.1,30.13,ENE,75,0.0,1.0,87,0.00,,,0.00,Wunderground v.1.15,2013-02-03 02:44:00,
2013-02-02 20:54:00,9.4,6.3,30.13,ENE,71,0.0,0.0,87,0.00,,,0.00,Wunderground v.1.15,2013-02-03 02:54:00,
2013-02-02 21:05:00,9.6,6.5,30.13,SW,214,1.0,2.0,87,0.00,,,0.00,Wunderground v.1.15,2013-02-03 03:05:00,
2013-02-02 21:14:00,9.8,6.7,30.14,West,275,0.0,1.0,87,0.00,,,0.00,Wunderground v.1.15,2013-02-03 03:14:00,
2013-02-02 21:24:00,9.9,6.6,30.13,North,354,0.0,0.0,86,0.00,,,0.00,Wunderground v.1.15,2013-02-03 03:24:00,
2013-02-02 21:29:00,10.0,6.6,30.14,North,354,1.0,1.0,86,0.00,,,0.00,Wunderground v.1.15,2013-02-03 03:29:00,
2013-02-02 21:39:00,10.0,6.6,30.14,North,349,0.0,0.0,86,0.00,,,0.00,Wunderground v.1.15,2013-02-03 03:39:00,
2013-02-02 21:49:00,10.3,7.2,30.14,North,349,0.0,0.0,87,0.00,,,0.00,Wunderground v.1.15,2013-02-03 03:49:00,
2013-02-02 21:54:00,10.3,7.2,30.14,NNW,342,0.0,0.0,87,0.00,,,0.00,Wunderground v.1.15,2013-02-03 03:54:00,
2013-02-02 22:05:00,10.1,6.7,30.15,NW,309,1.0,2.0,86,0.00,,,0.00,Wunderground v.1.15,2013-02-03 04:05:00,
2013-02-02 22:14:00,9.9,6.6,30.15,West,281,2.0,3.0,86,0.00,,,0.00,Wunderground v.1.15,2013-02-03 04:14:00,
2013-02-02 22:20:00,9.9,6.8,30.14,NW,309,1.0,1.0,87,0.00,,,0.00,Wunderground v.1.15,2013-02-03 04:20:00,
2013-02-02 22:29:00,9.9,6.8,30.15,NW,310,1.0,2.0,87,0.00,,,0.00,Wunderground v.1.15,2013-02-03 04:29:00,
2013-02-02 22:34:00,9.8,6.5,30.15,NW,306,2.0,4.0,86,0.00,,,0.00,Wunderground v.1.15,2013-02-03 04:34:00,
2013-02-02 22:45:00,9.8,6.7,30.15,North,349,1.0,2.0,87,0.00,,,0.00,Wunderground v.1.15,2013-02-03 04:45:00,
2013-02-02 22:54:00,9.6,6.5,30.15,WNW,297,2.0,2.0,87,0.00,,,0.00,Wunderground v.1.15,2013-02-03 04:54:00,
2013-02-02 22:59:00,9.5,6.4,30.16,WNW,290,2.0,2.0,87,0.00,,,0.00,Wunderground v.1.15,2013-02-03 04:59:00,
2013-02-02 23:05:00,9.5,6.2,30.16,NW,306,3.0,3.0,86,0.00,,,0.00,Wunderground v.1.15,2013-02-03 05:05:00,
2013-02-02 23:09:00,9.5,6.4,30.16,WNW,284,3.0,5.0,87,0.00,,,0.00,Wunderground v.1.15,2013-02-03 05:09:00,
2013-02-02 23:14:00,9.4,6.1,30.16,West,278,4.0,6.0,86,0.00,,,0.00,Wunderground v.1.15,2013-02-03 05:14:00,
2013-02-02 23:24:00,9.4,6.3,30.16,WNW,293,3.0,4.0,87,0.00,,,0.00,Wunderground v.1.15,2013-02-03 05:24:00,
2013-02-02 23:29:00,9.4,6.3,30.16,WNW,302,4.0,4.0,87,0.00,,,0.00,Wunderground v.1.15,2013-02-03 05:29:00,
2013-02-02 23:39:00,9.5,6.4,30.17,WNW,300,4.0,4.0,87,0.00,,,0.00,Wunderground v.1.15,2013-02-03 05:39:00,
2013-02-02 23:44:00,9.6,6.5,30.17,WNW,287,4.0,7.0,87,0.00,,,0.00,Wunderground v.1.15,2013-02-03 05:44:00,
2013-02-02 23:54:00,10.0,6.9,30.17,West,274,5.0,9.0,87,0.00,,,0.00,Wunderground v.1.15,2013-02-03 05:54:00,
2013-02-02 23:59:00,10.2,7.1,30.17,WNW,301,5.0,5.0,87,0.00,,,0.00,Wunderground v.1.15,2013-02-03 05:59:00,